createdAt,value
2023-03-10T00:01:27.456Z,63.90
2023-03-10T00:03:55.976Z,64.40
2023-03-10T00:06:25.276Z,64.00
2023-03-10T00:08:52.579Z,64.10
2023-03-10T00:11:20.074Z,64.00
2023-03-10T00:13:48.018Z,65.00
2023-03-10T00:16:24.798Z,65.40
2023-03-10T00:18:52.513Z,64.80
2023-03-10T00:21:23.016Z,64.60
2023-03-10T00:23:50.930Z,65.30
2023-03-10T00:26:20.012Z,64.60
2023-03-10T00:28:47.891Z,65.00
2023-03-10T00:31:18.058Z,64.70
2023-03-10T00:33:45.695Z,64.50
2023-03-10T00:36:18.405Z,64.70
2023-03-10T00:38:46.563Z,65.00
2023-03-10T00:41:16.727Z,64.40
2023-03-10T00:43:44.091Z,64.20
2023-03-10T00:46:11.981Z,64.20
2023-03-10T00:48:39.405Z,64.30
2023-03-10T00:51:07.710Z,64.30
2023-03-10T00:53:37.887Z,65.10
2023-03-10T00:56:06.401Z,65.10
2023-03-10T00:58:35.291Z,66.40
2023-03-10T01:01:04.729Z,65.00
2023-03-10T01:03:32.740Z,65.00
2023-03-10T01:05:59.827Z,64.80
2023-03-10T01:08:26.940Z,64.60
2023-03-10T01:10:54.095Z,64.40
2023-03-10T01:13:21.476Z,64.20
2023-03-10T01:15:48.816Z,64.40
2023-03-10T01:18:17.582Z,64.40
2023-03-10T01:20:44.803Z,65.00
2023-03-10T01:23:20.910Z,64.60
2023-03-10T01:25:48.677Z,64.70
2023-03-10T01:28:16.428Z,64.40
2023-03-10T01:30:44.098Z,64.80
2023-03-10T01:33:12.522Z,65.20
2023-03-10T01:35:40.248Z,64.90
2023-03-10T01:38:08.733Z,65.10
2023-03-10T01:40:37.890Z,64.70
2023-03-10T01:43:43.930Z,64.80
2023-03-10T01:46:29.892Z,64.40
2023-03-10T01:49:01.090Z,64.40
2023-03-10T01:51:32.872Z,65.00
2023-03-10T01:54:02.002Z,64.00
2023-03-10T01:56:29.204Z,64.20
2023-03-10T01:58:56.524Z,64.10
2023-03-10T02:01:23.677Z,64.00
2023-03-10T02:03:57.734Z,65.00
2023-03-10T02:06:26.166Z,64.40
2023-03-10T02:09:02.121Z,65.30
2023-03-10T02:11:30.407Z,64.90
2023-03-10T02:13:57.849Z,64.60
2023-03-10T02:16:25.278Z,64.50
2023-03-10T02:18:52.435Z,66.20
2023-03-10T02:21:46.713Z,65.30
2023-03-10T02:24:27.600Z,65.90
2023-03-10T02:27:19.968Z,65.40
2023-03-10T02:29:59.160Z,65.40
2023-03-10T02:32:31.123Z,65.40
2023-03-10T02:34:58.595Z,65.20
2023-03-10T02:37:28.601Z,66.20
2023-03-10T02:39:55.850Z,66.20
2023-03-10T02:42:26.672Z,65.60
2023-03-10T02:44:54.592Z,66.40
2023-03-10T02:47:21.830Z,66.20
2023-03-10T02:49:49.252Z,66.40
2023-03-10T02:52:21.756Z,65.60
2023-03-10T02:54:48.929Z,65.00
2023-03-10T02:57:16.092Z,65.30
2023-03-10T02:59:43.214Z,65.80
2023-03-10T03:02:10.491Z,65.30
2023-03-10T03:04:37.703Z,65.30
2023-03-10T03:07:04.881Z,66.00
2023-03-10T03:09:32.024Z,66.10
2023-03-10T03:12:00.051Z,67.10
2023-03-10T03:14:27.593Z,66.30
2023-03-10T03:16:54.829Z,66.20
2023-03-10T03:19:22.206Z,66.50
2023-03-10T03:21:50.306Z,66.10
2023-03-10T03:24:18.951Z,66.40
2023-03-10T03:26:46.062Z,66.50
2023-03-10T03:29:13.950Z,66.30
2023-03-10T03:31:41.289Z,66.40
2023-03-10T03:34:08.505Z,66.40
2023-03-10T03:36:36.055Z,66.60
2023-03-10T03:39:06.377Z,67.20
2023-03-10T03:41:34.277Z,66.50
2023-03-10T03:44:01.477Z,66.90
2023-03-10T03:46:28.838Z,66.70
2023-03-10T03:48:56.064Z,66.60
2023-03-10T03:51:23.213Z,66.40
2023-03-10T03:53:50.519Z,67.00
2023-03-10T03:56:17.674Z,66.80
2023-03-10T03:58:45.487Z,67.10
2023-03-10T04:01:13.057Z,66.80
2023-03-10T04:03:40.448Z,66.60
2023-03-10T04:06:08.232Z,66.50
2023-03-10T04:08:35.411Z,67.20
2023-03-10T04:11:02.600Z,67.10
2023-03-10T04:13:30.123Z,66.70
2023-03-10T04:15:59.450Z,66.60
2023-03-10T04:18:29.022Z,66.40
2023-03-10T04:20:56.149Z,66.60
2023-03-10T04:23:23.504Z,67.20
2023-03-10T04:25:50.666Z,66.50
2023-03-10T04:28:18.538Z,66.80
2023-03-10T04:30:46.998Z,66.60
2023-03-10T04:33:14.284Z,66.60
2023-03-10T04:35:43.191Z,66.70
2023-03-10T04:38:10.612Z,66.70
2023-03-10T04:40:37.833Z,66.90
2023-03-10T04:43:05.228Z,67.00
2023-03-10T04:45:32.575Z,68.30
2023-03-10T04:48:00.578Z,67.00
2023-03-10T04:50:28.151Z,67.00
2023-03-10T04:52:55.296Z,67.90
2023-03-10T04:55:22.377Z,67.00
2023-03-10T04:57:49.485Z,67.10
2023-03-10T05:00:16.859Z,67.50
2023-03-10T05:02:44.084Z,67.40
2023-03-10T05:05:11.509Z,67.40
2023-03-10T05:07:38.685Z,67.40
2023-03-10T05:10:06.950Z,67.70
2023-03-10T05:12:34.302Z,67.50
2023-03-10T05:15:01.509Z,67.60
2023-03-10T05:17:29.487Z,68.60
2023-03-10T05:19:58.085Z,68.50
2023-03-10T05:22:25.255Z,68.90
2023-03-10T05:24:52.496Z,68.60
2023-03-10T05:27:24.196Z,68.60
2023-03-10T05:29:51.344Z,68.80
2023-03-10T05:32:18.570Z,68.60
2023-03-10T05:34:45.719Z,68.70
2023-03-10T05:37:12.854Z,68.90
2023-03-10T05:39:39.996Z,69.60
2023-03-10T05:42:07.443Z,69.80
2023-03-10T05:44:34.581Z,69.80
2023-03-10T05:47:01.958Z,69.90
2023-03-10T05:49:29.167Z,69.80
2023-03-10T05:51:56.462Z,69.80
2023-03-10T05:54:23.894Z,69.80
2023-03-10T05:56:52.591Z,69.80
2023-03-10T05:59:20.098Z,70.20
2023-03-10T06:01:49.807Z,69.80
2023-03-10T06:04:17.039Z,69.80
2023-03-10T06:06:44.220Z,69.70
2023-03-10T06:09:11.379Z,69.80
2023-03-10T06:11:38.505Z,69.90
2023-03-10T06:14:05.769Z,70.10
2023-03-10T06:16:33.078Z,70.10
2023-03-10T06:19:00.397Z,70.10
2023-03-10T06:21:29.542Z,70.10
2023-03-10T06:23:56.896Z,70.10
2023-03-10T06:26:24.453Z,70.00
2023-03-10T06:28:51.761Z,70.20
2023-03-10T06:31:22.674Z,70.10
2023-03-10T06:33:49.962Z,70.00
2023-03-10T06:36:18.336Z,69.80
2023-03-10T06:38:45.646Z,69.60
2023-03-10T06:41:13.427Z,69.40
2023-03-10T06:43:41.134Z,69.30
2023-03-10T06:46:10.179Z,69.30
2023-03-10T06:48:38.929Z,69.10
2023-03-10T06:51:11.077Z,69.00
2023-03-10T06:53:38.407Z,69.10
2023-03-10T06:56:20.561Z,69.10
2023-03-10T06:58:48.591Z,69.10
2023-03-10T07:01:34.525Z,69.00
2023-03-10T07:04:02.246Z,68.80
2023-03-10T07:06:29.471Z,68.70
2023-03-10T07:08:58.063Z,68.80
2023-03-10T07:11:26.001Z,68.80
2023-03-10T07:14:14.234Z,68.40
2023-03-10T07:16:41.499Z,68.40
2023-03-10T07:19:08.707Z,68.20
2023-03-10T07:21:35.949Z,68.30
2023-03-10T07:24:03.130Z,68.20
2023-03-10T07:26:30.827Z,68.00
2023-03-10T07:28:58.006Z,67.70
2023-03-10T07:31:25.733Z,68.30
2023-03-10T07:33:52.948Z,67.80
2023-03-10T07:36:20.868Z,66.50
2023-03-10T07:38:48.313Z,66.40
2023-03-10T07:41:19.287Z,66.20
2023-03-10T07:43:46.721Z,66.20
2023-03-10T07:46:15.244Z,65.90
2023-03-10T07:48:43.078Z,66.20
2023-03-10T07:51:10.347Z,66.20
2023-03-10T07:53:37.581Z,66.10
2023-03-10T07:56:07.741Z,66.20
2023-03-10T07:58:35.642Z,66.30
2023-03-10T08:01:03.849Z,66.20
2023-03-10T08:03:31.211Z,66.30
2023-03-10T08:05:59.825Z,66.50
2023-03-10T08:08:29.472Z,66.30
2023-03-10T08:11:01.713Z,66.10
2023-03-10T08:13:29.074Z,66.10
2023-03-10T08:15:59.116Z,65.90
2023-03-10T08:18:26.403Z,66.10
2023-03-10T08:20:53.606Z,66.10
2023-03-10T08:23:20.852Z,66.00
2023-03-10T08:25:51.139Z,66.20
2023-03-10T08:28:18.261Z,66.20
2023-03-10T08:31:02.500Z,66.30
2023-03-10T08:33:31.330Z,66.20
2023-03-10T08:36:22.574Z,66.30
2023-03-10T08:38:51.522Z,66.20
2023-03-10T08:41:28.449Z,66.40
2023-03-10T08:43:57.708Z,66.10
2023-03-10T08:46:27.734Z,66.10
2023-03-10T08:48:55.791Z,66.10
2023-03-10T08:51:23.510Z,66.10
2023-03-10T08:53:51.898Z,65.80
2023-03-10T08:56:24.621Z,65.80
2023-03-10T08:58:56.761Z,65.90
2023-03-10T09:01:50.145Z,66.00
2023-03-10T09:04:20.749Z,65.90
2023-03-10T09:06:48.022Z,65.70
2023-03-10T09:09:19.923Z,65.80
2023-03-10T09:11:47.145Z,65.80
2023-03-10T09:14:17.874Z,65.50
2023-03-10T09:16:45.269Z,65.50
2023-03-10T09:19:12.528Z,65.50
2023-03-10T09:21:40.113Z,65.40
2023-03-10T09:24:07.497Z,65.20
2023-03-10T09:26:34.733Z,65.30
2023-03-10T09:29:02.636Z,65.50
2023-03-10T09:31:34.625Z,65.40
2023-03-10T09:34:02.445Z,65.20
2023-03-10T09:36:29.914Z,65.00
2023-03-10T09:38:58.295Z,65.00
2023-03-10T09:41:45.263Z,64.80
2023-03-10T09:44:43.570Z,64.70
2023-03-10T09:47:10.996Z,64.80
2023-03-10T09:49:44.363Z,64.80
2023-03-10T09:52:40.612Z,64.70
2023-03-10T09:55:16.803Z,64.60
2023-03-10T09:57:46.125Z,64.50
2023-03-10T10:00:21.861Z,64.50
2023-03-10T10:02:54.185Z,64.20
2023-03-10T10:05:27.126Z,63.90
2023-03-10T10:07:57.246Z,63.80
2023-03-10T10:10:28.435Z,63.80
2023-03-10T10:13:00.776Z,63.90
2023-03-10T10:15:35.324Z,63.40
2023-03-10T10:18:18.094Z,63.00
2023-03-10T10:20:51.119Z,62.00
2023-03-10T10:23:38.940Z,62.20
2023-03-10T10:26:12.518Z,62.20
2023-03-10T10:28:50.746Z,61.50
2023-03-10T10:31:20.892Z,59.60
2023-03-10T10:34:02.136Z,59.70
2023-03-10T10:36:46.916Z,60.70
2023-03-10T10:39:27.996Z,60.20
2023-03-10T10:42:13.390Z,59.90
2023-03-10T10:44:44.942Z,59.50
2023-03-10T10:47:26.573Z,59.00
2023-03-10T10:49:54.147Z,59.10
2023-03-10T10:52:28.526Z,58.50
2023-03-10T10:54:58.924Z,57.80
2023-03-10T10:57:35.370Z,57.00
2023-03-10T11:00:26.918Z,56.90
2023-03-10T11:02:55.080Z,56.70
2023-03-10T11:05:29.520Z,56.20
2023-03-10T11:07:57.085Z,56.00
2023-03-10T11:10:30.514Z,56.30
2023-03-10T11:13:05.686Z,55.20
2023-03-10T11:15:37.196Z,53.90
2023-03-10T11:18:14.431Z,54.20
2023-03-10T11:20:51.870Z,52.70
2023-03-10T11:23:47.947Z,51.80
2023-03-10T11:26:33.088Z,53.30
2023-03-10T11:29:31.224Z,53.90
2023-03-10T11:32:01.342Z,52.90
2023-03-10T11:34:31.478Z,52.80
2023-03-10T11:37:29.904Z,52.80
2023-03-10T11:40:16.026Z,50.50
2023-03-10T11:43:02.737Z,52.10
2023-03-10T11:45:39.310Z,52.10
2023-03-10T11:48:09.274Z,51.60
2023-03-10T11:50:45.072Z,52.70
2023-03-10T11:53:30.585Z,51.70
2023-03-10T11:56:00.166Z,51.20
2023-03-10T11:58:39.405Z,49.20
2023-03-10T12:01:11.952Z,50.90
2023-03-10T12:03:45.097Z,49.50
2023-03-10T12:06:19.997Z,50.50
2023-03-10T12:08:51.419Z,50.20
2023-03-10T12:11:24.381Z,50.30
2023-03-10T12:13:58.210Z,48.20
2023-03-10T12:16:36.522Z,46.60
2023-03-10T12:19:06.100Z,47.50
2023-03-10T12:21:33.855Z,46.00
2023-03-10T12:24:03.452Z,47.60
2023-03-10T12:26:39.654Z,46.80
2023-03-10T12:29:22.167Z,47.10
2023-03-10T12:31:51.947Z,45.20
2023-03-10T12:34:24.714Z,45.80
2023-03-10T12:37:11.520Z,44.70
2023-03-10T12:39:43.016Z,45.20
2023-03-10T12:42:35.421Z,44.50
2023-03-10T12:45:21.349Z,45.10
2023-03-10T12:48:01.585Z,45.00
2023-03-10T12:50:45.986Z,45.60
2023-03-10T12:53:46.923Z,45.10
2023-03-10T12:56:14.031Z,46.40
2023-03-10T12:58:50.650Z,45.70
2023-03-10T13:01:22.232Z,45.30
2023-03-10T13:03:53.041Z,44.50
2023-03-10T13:06:24.477Z,44.20
2023-03-10T13:09:30.472Z,45.50
2023-03-10T13:12:07.305Z,44.70
2023-03-10T13:14:38.305Z,44.40
2023-03-10T13:17:06.784Z,44.50
2023-03-10T13:19:36.135Z,44.60
2023-03-10T13:22:07.052Z,44.30
2023-03-10T13:24:37.357Z,44.30
2023-03-10T13:27:12.146Z,44.80
2023-03-10T13:29:40.365Z,45.00
2023-03-10T13:32:19.352Z,44.70
2023-03-10T13:34:46.467Z,44.70
2023-03-10T13:37:13.604Z,45.00
2023-03-10T13:39:41.294Z,45.20
2023-03-10T13:42:37.069Z,45.20
2023-03-10T13:45:21.751Z,44.80
2023-03-10T13:47:51.387Z,45.00
2023-03-10T13:50:18.742Z,45.30
2023-03-10T13:52:57.983Z,45.40
2023-03-10T13:55:26.878Z,45.40
2023-03-10T13:57:54.676Z,45.10
2023-03-10T14:00:24.445Z,44.80
2023-03-10T14:02:53.249Z,44.80
2023-03-10T14:05:42.763Z,44.40
2023-03-10T14:08:30.949Z,44.60
2023-03-10T14:11:43.318Z,44.30
2023-03-10T14:14:12.836Z,44.10
2023-03-10T14:16:54.004Z,44.50
2023-03-10T14:19:48.445Z,44.10
2023-03-10T14:22:24.518Z,44.40
2023-03-10T14:24:51.948Z,45.30
2023-03-10T14:27:19.369Z,44.00
2023-03-10T14:29:51.988Z,44.30
2023-03-10T14:32:19.650Z,44.40
2023-03-10T14:34:48.604Z,44.40
2023-03-10T14:37:16.121Z,44.60
2023-03-10T14:39:43.433Z,44.50
2023-03-10T14:42:25.409Z,44.60
2023-03-10T14:44:56.681Z,44.70
2023-03-10T14:47:24.026Z,44.90
2023-03-10T14:49:51.410Z,44.90
2023-03-10T14:52:18.904Z,45.00
2023-03-10T14:54:47.422Z,45.30
2023-03-10T14:57:19.901Z,45.40
2023-03-10T14:59:47.119Z,45.30
2023-03-10T15:02:23.516Z,45.50
2023-03-10T15:04:51.143Z,45.40
2023-03-10T15:07:18.482Z,45.40
2023-03-10T15:09:45.675Z,45.20
2023-03-10T15:12:18.013Z,45.10
2023-03-10T15:14:53.759Z,45.40
2023-03-10T15:17:21.712Z,45.20
2023-03-10T15:19:48.889Z,45.60
2023-03-10T15:22:17.112Z,46.20
2023-03-10T15:24:44.464Z,45.50
2023-03-10T15:27:14.893Z,45.50
2023-03-10T15:29:42.040Z,45.70
2023-03-10T15:32:09.801Z,45.80
2023-03-10T15:34:36.893Z,46.00
2023-03-10T15:37:06.228Z,46.10
2023-03-10T15:39:36.870Z,46.10
2023-03-10T15:42:04.553Z,46.00
2023-03-10T15:44:31.691Z,46.00
2023-03-10T15:46:58.981Z,45.40
2023-03-10T15:49:26.189Z,45.30
2023-03-10T15:51:53.327Z,45.80
2023-03-10T15:54:20.690Z,45.60
2023-03-10T15:56:47.766Z,45.80
2023-03-10T15:59:15.152Z,46.00
2023-03-10T16:01:42.347Z,45.90
2023-03-10T16:04:09.598Z,45.90
2023-03-10T16:06:36.843Z,45.90
2023-03-10T16:09:04.761Z,46.20
2023-03-10T16:11:33.238Z,46.20
2023-03-10T16:14:00.378Z,46.80
2023-03-10T16:16:29.153Z,46.30
2023-03-10T16:18:56.413Z,46.40
2023-03-10T16:21:23.616Z,46.50
2023-03-10T16:23:50.941Z,46.60
2023-03-10T16:26:20.737Z,46.60
2023-03-10T16:28:53.123Z,46.70
2023-03-10T16:31:23.039Z,46.90
2023-03-10T16:33:51.657Z,46.80
2023-03-10T16:36:22.512Z,47.00
2023-03-10T16:38:50.167Z,47.20
2023-03-10T16:41:17.651Z,47.50
2023-03-10T16:43:44.913Z,47.60
2023-03-10T16:46:15.854Z,47.70
2023-03-10T16:48:45.776Z,48.00
2023-03-10T16:51:29.553Z,48.00
2023-03-10T16:53:59.678Z,48.50
2023-03-10T16:56:29.066Z,48.10
2023-03-10T16:58:56.876Z,48.30
2023-03-10T17:01:24.850Z,48.80
2023-03-10T17:03:53.133Z,48.50
2023-03-10T17:06:23.716Z,48.80
2023-03-10T17:08:52.063Z,48.80
2023-03-10T17:11:29.763Z,49.00
2023-03-10T17:14:02.339Z,49.30
2023-03-10T17:16:31.199Z,50.60
2023-03-10T17:19:00.883Z,49.60
2023-03-10T17:21:32.758Z,49.60
2023-03-10T17:24:00.290Z,50.10
2023-03-10T17:26:27.830Z,49.70
2023-03-10T17:28:55.469Z,50.00
2023-03-10T17:31:30.406Z,49.80
2023-03-10T17:34:00.192Z,50.10
2023-03-10T17:36:28.333Z,50.60
2023-03-10T17:38:58.928Z,51.30
2023-03-10T17:41:30.292Z,51.20
2023-03-10T17:43:57.669Z,50.60
2023-03-10T17:46:28.220Z,50.60
2023-03-10T17:49:00.315Z,50.50
2023-03-10T17:51:30.542Z,51.10
2023-03-10T17:54:00.928Z,50.60
2023-03-10T17:56:28.889Z,50.50
2023-03-10T17:58:57.645Z,50.50
2023-03-10T18:01:31.752Z,50.60
2023-03-10T18:04:00.258Z,50.90
2023-03-10T18:06:33.140Z,50.40
2023-03-10T18:09:01.825Z,50.60
2023-03-10T18:11:32.454Z,50.60
2023-03-10T18:14:03.062Z,50.40
2023-03-10T18:16:33.942Z,50.50
2023-03-10T18:19:02.106Z,50.60
2023-03-10T18:21:29.339Z,50.40
2023-03-10T18:23:56.720Z,50.50
2023-03-10T18:26:27.627Z,50.50
2023-03-10T18:28:54.858Z,50.80
2023-03-10T18:31:25.468Z,50.50
2023-03-10T18:33:54.064Z,50.40
2023-03-10T18:36:24.195Z,50.40
2023-03-10T18:38:52.930Z,50.40
2023-03-10T18:41:24.024Z,50.30
2023-03-10T18:43:52.077Z,50.30
2023-03-10T18:46:19.885Z,50.30
2023-03-10T18:48:47.221Z,50.30
2023-03-10T18:51:14.416Z,50.30
2023-03-10T18:53:41.650Z,50.30
2023-03-10T18:56:10.102Z,50.10
2023-03-10T18:58:37.473Z,50.30
2023-03-10T19:01:11.027Z,50.20
2023-03-10T19:03:38.542Z,50.20
2023-03-10T19:06:06.374Z,50.10
2023-03-10T19:08:38.585Z,50.40
2023-03-10T19:11:07.072Z,50.40
2023-03-10T19:13:34.790Z,50.80
2023-03-10T19:16:09.969Z,50.60
2023-03-10T19:18:37.900Z,50.80
2023-03-10T19:21:06.277Z,50.80
2023-03-10T19:23:35.047Z,50.90
2023-03-10T19:26:03.092Z,50.90
2023-03-10T19:28:30.396Z,50.80
2023-03-10T19:30:57.665Z,51.10
2023-03-10T19:33:24.921Z,50.90
2023-03-10T19:36:01.339Z,50.90
2023-03-10T19:38:32.052Z,51.00
2023-03-10T19:43:00.369Z,51.20
2023-03-10T19:44:22.059Z,51.20
2023-03-10T19:46:49.234Z,51.10
2023-03-10T19:49:16.344Z,51.10
2023-03-10T19:51:43.532Z,51.40
2023-03-10T19:54:13.657Z,51.60
2023-03-10T19:56:43.539Z,51.60
2023-03-10T19:59:15.020Z,51.60
2023-03-10T20:01:44.017Z,51.70
2023-03-10T20:04:11.659Z,51.70
2023-03-10T20:06:38.955Z,51.80
2023-03-10T20:09:10.553Z,52.10
2023-03-10T20:11:40.473Z,52.30
2023-03-10T20:14:08.415Z,52.70
2023-03-10T20:16:35.836Z,52.50
2023-03-10T20:19:03.322Z,53.10
2023-03-10T20:21:32.245Z,53.10
2023-03-10T20:23:59.521Z,53.40
2023-03-10T20:26:28.824Z,53.60
2023-03-10T20:28:55.889Z,53.70
2023-03-10T20:31:27.176Z,53.90
2023-03-10T20:33:54.448Z,54.00
2023-03-10T20:36:22.888Z,54.90
2023-03-10T20:38:50.296Z,54.80
2023-03-10T20:41:33.733Z,55.30
2023-03-10T20:44:02.928Z,55.10
2023-03-10T20:46:31.739Z,55.10
2023-03-10T20:48:58.949Z,55.30
2023-03-10T20:51:26.080Z,55.10
2023-03-10T20:53:54.760Z,55.10
2023-03-10T20:56:21.945Z,55.10
2023-03-10T20:58:49.161Z,54.90
2023-03-10T21:01:23.882Z,54.80
2023-03-10T21:03:54.693Z,54.50
2023-03-10T21:06:26.951Z,54.40
2023-03-10T21:08:54.118Z,54.30
2023-03-10T21:11:21.777Z,54.30
2023-03-10T21:13:52.013Z,54.30
2023-03-10T21:16:20.774Z,54.30
2023-03-10T21:18:49.267Z,54.20
2023-03-10T21:21:16.347Z,54.20
2023-03-10T21:23:43.550Z,54.20
2023-03-10T21:26:18.159Z,54.20
2023-03-10T21:28:51.688Z,54.20
2023-03-10T21:31:22.019Z,54.40
2023-03-10T21:33:50.237Z,54.60
2023-03-10T21:36:23.546Z,54.40
2023-03-10T21:38:51.671Z,54.80
2023-03-10T21:41:22.540Z,54.80
2023-03-10T21:43:50.243Z,54.90
2023-03-10T21:46:17.473Z,54.80
2023-03-10T21:48:44.627Z,54.80
2023-03-10T21:51:17.030Z,55.10
2023-03-10T21:53:47.155Z,55.10
2023-03-10T21:56:17.732Z,55.10
2023-03-10T21:58:48.620Z,55.00
2023-03-10T22:01:17.970Z,55.30
2023-03-10T22:03:46.970Z,55.20
2023-03-10T22:06:14.742Z,55.20
2023-03-10T22:08:42.490Z,55.30
2023-03-10T22:11:13.024Z,55.40
2023-03-10T22:13:41.008Z,55.40
2023-03-10T22:16:13.253Z,55.30
2023-03-10T22:18:40.366Z,55.30
2023-03-10T22:21:10.493Z,55.30
2023-03-10T22:23:37.704Z,55.30
2023-03-10T22:26:05.023Z,55.30
2023-03-10T22:28:32.606Z,55.30
2023-03-10T22:30:59.905Z,55.30
2023-03-10T22:33:27.001Z,55.10
2023-03-10T22:35:54.214Z,55.00
2023-03-10T22:38:21.640Z,54.90
2023-03-10T22:40:48.846Z,54.70
2023-03-10T22:43:16.084Z,54.50
2023-03-10T22:45:43.441Z,54.50
2023-03-10T22:48:10.849Z,54.50
2023-03-10T22:50:41.245Z,54.50
2023-03-10T22:53:13.878Z,54.20
2023-03-10T22:55:45.357Z,54.00
2023-03-10T22:58:14.333Z,54.00
2023-03-10T23:00:45.098Z,54.00
2023-03-10T23:03:13.946Z,53.80
2023-03-10T23:05:41.642Z,53.80
2023-03-10T23:08:10.208Z,53.80
2023-03-10T23:10:38.116Z,53.70
2023-03-10T23:13:08.322Z,53.70
2023-03-10T23:15:39.761Z,53.70
2023-03-10T23:18:07.952Z,53.70
2023-03-10T23:20:44.049Z,53.60
2023-03-10T23:23:15.736Z,53.70
2023-03-10T23:25:47.218Z,53.70
2023-03-10T23:28:15.685Z,53.70
2023-03-10T23:30:44.721Z,53.70
2023-03-10T23:33:18.484Z,53.70
2023-03-10T23:35:53.772Z,53.20
2023-03-10T23:38:23.691Z,53.10
2023-03-10T23:40:51.835Z,53.10
2023-03-10T23:43:19.126Z,52.90
2023-03-10T23:45:46.403Z,53.00
2023-03-10T23:48:16.921Z,53.20
2023-03-10T23:50:45.544Z,53.30
2023-03-10T23:53:13.735Z,53.30
2023-03-10T23:55:43.892Z,53.40
2023-03-10T23:58:13.174Z,53.40
